Aviation Digital Data Service (ADDS)

Output produced by METARs form (2027 UTC 18 July 2018)
found at http://www.aviationweather.gov/adds/metars/
 
METAR text: LFST 182000Z AUTO 33005KT CAVOK 21/15 Q1016 NOSIG
Conditions at: LFST (STRASBOURG/ENTZH, FR) observed 2000 UTC 18 July 2018
Temperature: 21.0°C (70°F)
Dewpoint: 15.0°C (59°F) [RH = 69%]
Pressure (altimeter): 30.00 inches Hg (1016.0 mb)
Winds: from the NNW (330 degrees) at 6 MPH (5 knots; 2.6 m/s)
Visibility: 6 or more miles (10+ km)
Ceiling: ceiling and visibility are OK
Clouds: unknown
Weather: no significant weather observed at this time

METAR text: LFST 181930Z AUTO 35004KT CAVOK 23/15 Q1016 NOSIG
Conditions at: LFST (STRASBOURG/ENTZH, FR) observed 1930 UTC 18 July 2018
Temperature: 23.0°C (73°F)
Dewpoint: 15.0°C (59°F) [RH = 61%]
Pressure (altimeter): 30.00 inches Hg (1016.0 mb)
Winds: from the N (350 degrees) at 5 MPH (4 knots; 2.1 m/s)
Visibility: 6 or more miles (10+ km)
Ceiling: ceiling and visibility are OK
Clouds: unknown
Weather: no significant weather observed at this time

METAR text: LFST 181900Z AUTO 02005KT CAVOK 26/13 Q1015 NOSIG
Conditions at: LFST (STRASBOURG/ENTZH, FR) observed 1900 UTC 18 July 2018
Temperature: 26.0°C (79°F)
Dewpoint: 13.0°C (55°F) [RH = 45%]
Pressure (altimeter): 29.97 inches Hg (1015.0 mb)
Winds: from the NNE (20 degrees) at 6 MPH (5 knots; 2.6 m/s)
Visibility: 6 or more miles (10+ km)
Ceiling: ceiling and visibility are OK
Clouds: unknown
Weather: no significant weather observed at this time

METAR text: LFST 181830Z AUTO 03005KT CAVOK 27/13 Q1015 NOSIG
Conditions at: LFST (STRASBOURG/ENTZH, FR) observed 1830 UTC 18 July 2018
Temperature: 27.0°C (81°F)
Dewpoint: 13.0°C (55°F) [RH = 42%]
Pressure (altimeter): 29.97 inches Hg (1015.0 mb)
Winds: from the NNE (30 degrees) at 6 MPH (5 knots; 2.6 m/s)
Visibility: 6 or more miles (10+ km)
Ceiling: ceiling and visibility are OK
Clouds: unknown
Weather: no significant weather observed at this time

METAR text: LFST 181800Z AUTO 03008KT CAVOK 28/13 Q1015 NOSIG
Conditions at: LFST (STRASBOURG/ENTZH, FR) observed 1800 UTC 18 July 2018
Temperature: 28.0°C (82°F)
Dewpoint: 13.0°C (55°F) [RH = 40%]
Pressure (altimeter): 29.97 inches Hg (1015.0 mb)
Winds: from the NNE (30 degrees) at 9 MPH (8 knots; 4.2 m/s)
Visibility: 6 or more miles (10+ km)
Ceiling: ceiling and visibility are OK
Clouds: unknown
Weather: no significant weather observed at this time

METAR text: LFST 181730Z AUTO 02007KT CAVOK 29/13 Q1015 NOSIG
Conditions at: LFST (STRASBOURG/ENTZH, FR) observed 1730 UTC 18 July 2018
Temperature: 29.0°C (84°F)
Dewpoint: 13.0°C (55°F) [RH = 37%]
Pressure (altimeter): 29.97 inches Hg (1015.0 mb)
Winds: from the NNE (20 degrees) at 8 MPH (7 knots; 3.6 m/s)
Visibility: 6 or more miles (10+ km)
Ceiling: ceiling and visibility are OK
Clouds: unknown
Weather: no significant weather observed at this time

METAR text: LFST 181700Z AUTO 04008KT 360V070 CAVOK 28/14 Q1015 TEMPO FEW050TCU
Conditions at: LFST (STRASBOURG/ENTZH, FR) observed 1700 UTC 18 July 2018
Temperature: 28.0°C (82°F)
Dewpoint: 14.0°C (57°F) [RH = 42%]
Pressure (altimeter): 29.97 inches Hg (1015.0 mb)
Winds: from the NE (40 degrees) at 9 MPH (8 knots; 4.2 m/s)
Visibility: 6 or more miles (10+ km)
Ceiling: ceiling and visibility are OK
Clouds: unknown
Weather: no significant weather observed at this time

METAR text: LFST 181630Z AUTO 01009KT 340V050 CAVOK 29/13 Q1015 TEMPO FEW050TCU
Conditions at: LFST (STRASBOURG/ENTZH, FR) observed 1630 UTC 18 July 2018
Temperature: 29.0°C (84°F)
Dewpoint: 13.0°C (55°F) [RH = 37%]
Pressure (altimeter): 29.97 inches Hg (1015.0 mb)
Winds: from the N (10 degrees) at 10 MPH (9 knots; 4.7 m/s)
Visibility: 6 or more miles (10+ km)
Ceiling: ceiling and visibility are OK
Clouds: unknown
Weather: no significant weather observed at this time

METAR text: LFST 181600Z AUTO 02009KT 350V050 CAVOK 29/14 Q1016 TEMPO FEW050TCU
Conditions at: LFST (STRASBOURG/ENTZH, FR) observed 1600 UTC 18 July 2018
Temperature: 29.0°C (84°F)
Dewpoint: 14.0°C (57°F) [RH = 40%]
Pressure (altimeter): 30.00 inches Hg (1016.0 mb)
Winds: from the NNE (20 degrees) at 10 MPH (9 knots; 4.7 m/s)
Visibility: 6 or more miles (10+ km)
Ceiling: ceiling and visibility are OK
Clouds: unknown
Weather: no significant weather observed at this time

METAR text: LFST 181530Z AUTO 02008KT 350V060 CAVOK 29/13 Q1016 TEMPO FEW050TCU
Conditions at: LFST (STRASBOURG/ENTZH, FR) observed 1530 UTC 18 July 2018
Temperature: 29.0°C (84°F)
Dewpoint: 13.0°C (55°F) [RH = 37%]
Pressure (altimeter): 30.00 inches Hg (1016.0 mb)
Winds: from the NNE (20 degrees) at 9 MPH (8 knots; 4.2 m/s)
Visibility: 6 or more miles (10+ km)
Ceiling: ceiling and visibility are OK
Clouds: unknown
Weather: no significant weather observed at this time

METAR text: LFST 181500Z AUTO 02009KT 340V050 9999 FEW009 29/13 Q1016 TEMPO FEW050TCU
Conditions at: LFST (STRASBOURG/ENTZH, FR) observed 1500 UTC 18 July 2018
Temperature: 29.0°C (84°F)
Dewpoint: 13.0°C (55°F) [RH = 37%]
Pressure (altimeter): 30.00 inches Hg (1016.0 mb)
Winds: from the NNE (20 degrees) at 10 MPH (9 knots; 4.7 m/s)
Visibility: 6 or more miles (10+ km)
Ceiling: at least 12,000 feet AGL
Clouds: few clouds at 900 feet AGL
Weather: no significant weather observed at this time

METAR text: LFST 181430Z AUTO VRB04KT CAVOK 29/14 Q1016 TEMPO FEW050TCU
Conditions at: LFST (STRASBOURG/ENTZH, FR) observed 1430 UTC 18 July 2018
Temperature: 29.0°C (84°F)
Dewpoint: 14.0°C (57°F) [RH = 40%]
Pressure (altimeter): 30.00 inches Hg (1016.0 mb)
Winds: variable direction winds at 5 MPH (4 knots; 2.1 m/s)
Visibility: 6 or more miles (10+ km)
Ceiling: ceiling and visibility are OK
Clouds: unknown
Weather: no significant weather observed at this time

METAR text: LFST 181400Z AUTO 36007KT 330V090 CAVOK 29/14 Q1016 TEMPO FEW050TCU
Conditions at: LFST (STRASBOURG/ENTZH, FR) observed 1400 UTC 18 July 2018
Temperature: 29.0°C (84°F)
Dewpoint: 14.0°C (57°F) [RH = 40%]
Pressure (altimeter): 30.00 inches Hg (1016.0 mb)
Winds: from the N (360 degrees) at 8 MPH (7 knots; 3.6 m/s)
Visibility: 6 or more miles (10+ km)
Ceiling: ceiling and visibility are OK
Clouds: unknown
Weather: no significant weather observed at this time

METAR text: LFST 181330Z AUTO VRB03KT CAVOK 29/14 Q1016 TEMPO FEW050TCU
Conditions at: LFST (STRASBOURG/ENTZH, FR) observed 1330 UTC 18 July 2018
Temperature: 29.0°C (84°F)
Dewpoint: 14.0°C (57°F) [RH = 40%]
Pressure (altimeter): 30.00 inches Hg (1016.0 mb)
Winds: variable direction winds at 3 MPH (3 knots; 1.6 m/s)
Visibility: 6 or more miles (10+ km)
Ceiling: ceiling and visibility are OK
Clouds: unknown
Weather: no significant weather observed at this time

METAR text: LFST 181300Z AUTO 05005KT 360V100 CAVOK 28/15 Q1017 TEMPO FEW050TCU
Conditions at: LFST (STRASBOURG/ENTZH, FR) observed 1300 UTC 18 July 2018
Temperature: 28.0°C (82°F)
Dewpoint: 15.0°C (59°F) [RH = 45%]
Pressure (altimeter): 30.03 inches Hg (1017.0 mb)
Winds: from the NE (50 degrees) at 6 MPH (5 knots; 2.6 m/s)
Visibility: 6 or more miles (10+ km)
Ceiling: ceiling and visibility are OK
Clouds: unknown
Weather: no significant weather observed at this time

METAR text: LFST 181230Z AUTO 36006KT 330V030 CAVOK 28/16 Q1017 TEMPO FEW050TCU
Conditions at: LFST (STRASBOURG/ENTZH, FR) observed 1230 UTC 18 July 2018
Temperature: 28.0°C (82°F)
Dewpoint: 16.0°C (61°F) [RH = 48%]
Pressure (altimeter): 30.03 inches Hg (1017.0 mb)
Winds: from the N (360 degrees) at 7 MPH (6 knots; 3.1 m/s)
Visibility: 6 or more miles (10+ km)
Ceiling: ceiling and visibility are OK
Clouds: unknown
Weather: no significant weather observed at this time

METAR text: LFST 181200Z AUTO 02004KT 330V070 CAVOK 27/15 Q1017
Conditions at: LFST (STRASBOURG/ENTZH, FR) observed 1200 UTC 18 July 2018
Temperature: 27.0°C (81°F)
Dewpoint: 15.0°C (59°F) [RH = 48%]
Pressure (altimeter): 30.03 inches Hg (1017.0 mb)
Winds: from the NNE (20 degrees) at 5 MPH (4 knots; 2.1 m/s)
Visibility: 6 or more miles (10+ km)
Ceiling: ceiling and visibility are OK
Clouds: unknown
Weather: no significant weather observed at this time

METAR text: LFST 181130Z AUTO 05007KT 330V090 CAVOK 27/14 Q1017 TEMPO FEW050TCU
Conditions at: LFST (STRASBOURG/ENTZH, FR) observed 1130 UTC 18 July 2018
Temperature: 27.0°C (81°F)
Dewpoint: 14.0°C (57°F) [RH = 45%]
Pressure (altimeter): 30.03 inches Hg (1017.0 mb)
Winds: from the NE (50 degrees) at 8 MPH (7 knots; 3.6 m/s)
Visibility: 6 or more miles (10+ km)
Ceiling: ceiling and visibility are OK
Clouds: unknown
Weather: no significant weather observed at this time

METAR text: LFST 181100Z AUTO 04006G18KT 350V090 CAVOK 27/16 Q1017 TEMPO FEW050TCU
Conditions at: LFST (STRASBOURG/ENTZH, FR) observed 1100 UTC 18 July 2018
Temperature: 27.0°C (81°F)
Dewpoint: 16.0°C (61°F) [RH = 51%]
Pressure (altimeter): 30.03 inches Hg (1017.0 mb)
Winds: from the NE (40 degrees) at 7 MPH (6 knots; 3.1 m/s)
gusting to 21 MPH (18 knots; 9.4 m/s)
Visibility: 6 or more miles (10+ km)
Ceiling: ceiling and visibility are OK
Clouds: unknown
Weather: no significant weather observed at this time

METAR text: LFST 181030Z AUTO 03008KT 350V080 CAVOK 26/15 Q1017 TEMPO FEW050TCU
Conditions at: LFST (STRASBOURG/ENTZH, FR) observed 1030 UTC 18 July 2018
Temperature: 26.0°C (79°F)
Dewpoint: 15.0°C (59°F) [RH = 51%]
Pressure (altimeter): 30.03 inches Hg (1017.0 mb)
Winds: from the NNE (30 degrees) at 9 MPH (8 knots; 4.2 m/s)
Visibility: 6 or more miles (10+ km)
Ceiling: ceiling and visibility are OK
Clouds: unknown
Weather: no significant weather observed at this time

METAR text: LFST 181000Z AUTO 03007KT 330V090 CAVOK 26/17 Q1018 TEMPO FEW050TCU
Conditions at: LFST (STRASBOURG/ENTZH, FR) observed 1000 UTC 18 July 2018
Temperature: 26.0°C (79°F)
Dewpoint: 17.0°C (63°F) [RH = 58%]
Pressure (altimeter): 30.06 inches Hg (1018.0 mb)
Winds: from the NNE (30 degrees) at 8 MPH (7 knots; 3.6 m/s)
Visibility: 6 or more miles (10+ km)
Ceiling: ceiling and visibility are OK
Clouds: unknown
Weather: no significant weather observed at this time

METAR text: LFST 180930Z AUTO 01009KT 340V040 CAVOK 25/17 Q1018 TEMPO FEW050TCU
Conditions at: LFST (STRASBOURG/ENTZH, FR) observed 0930 UTC 18 July 2018
Temperature: 25.0°C (77°F)
Dewpoint: 17.0°C (63°F) [RH = 61%]
Pressure (altimeter): 30.06 inches Hg (1018.0 mb)
Winds: from the N (10 degrees) at 10 MPH (9 knots; 4.7 m/s)
Visibility: 6 or more miles (10+ km)
Ceiling: ceiling and visibility are OK
Clouds: unknown
Weather: no significant weather observed at this time

METAR text: LFST 180900Z AUTO 04005KT 330V080 CAVOK 24/17 Q1018 TEMPO FEW050TCU
Conditions at: LFST (STRASBOURG/ENTZH, FR) observed 0900 UTC 18 July 2018
Temperature: 24.0°C (75°F)
Dewpoint: 17.0°C (63°F) [RH = 65%]
Pressure (altimeter): 30.06 inches Hg (1018.0 mb)
Winds: from the NE (40 degrees) at 6 MPH (5 knots; 2.6 m/s)
Visibility: 6 or more miles (10+ km)
Ceiling: ceiling and visibility are OK
Clouds: unknown
Weather: no significant weather observed at this time

METAR text: LFST 180830Z AUTO 05005KT 350V100 CAVOK 23/17 Q1018 TEMPO FEW050TCU
Conditions at: LFST (STRASBOURG/ENTZH, FR) observed 0830 UTC 18 July 2018
Temperature: 23.0°C (73°F)
Dewpoint: 17.0°C (63°F) [RH = 69%]
Pressure (altimeter): 30.06 inches Hg (1018.0 mb)
Winds: from the NE (50 degrees) at 6 MPH (5 knots; 2.6 m/s)
Visibility: 6 or more miles (10+ km)
Ceiling: ceiling and visibility are OK
Clouds: unknown
Weather: no significant weather observed at this time

METAR text: LFST 180800Z AUTO 04005KT 360V090 CAVOK 22/18 Q1018 TEMPO FEW050TCU
Conditions at: LFST (STRASBOURG/ENTZH, FR) observed 0800 UTC 18 July 2018
Temperature: 22.0°C (72°F)
Dewpoint: 18.0°C (64°F) [RH = 78%]
Pressure (altimeter): 30.06 inches Hg (1018.0 mb)
Winds: from the NE (40 degrees) at 6 MPH (5 knots; 2.6 m/s)
Visibility: 6 or more miles (10+ km)
Ceiling: ceiling and visibility are OK
Clouds: unknown
Weather: no significant weather observed at this time

METAR text: LFST 180730Z AUTO 35006KT 320V020 CAVOK 21/17 Q1018 TEMPO FEW050TCU
Conditions at: LFST (STRASBOURG/ENTZH, FR) observed 0730 UTC 18 July 2018
Temperature: 21.0°C (70°F)
Dewpoint: 17.0°C (63°F) [RH = 78%]
Pressure (altimeter): 30.06 inches Hg (1018.0 mb)
Winds: from the N (350 degrees) at 7 MPH (6 knots; 3.1 m/s)
Visibility: 6 or more miles (10+ km)
Ceiling: ceiling and visibility are OK
Clouds: unknown
Weather: no significant weather observed at this time

METAR text: LFST 180700Z AUTO 03004KT 350V060 CAVOK 21/17 Q1018 NOSIG
Conditions at: LFST (STRASBOURG/ENTZH, FR) observed 0700 UTC 18 July 2018
Temperature: 21.0°C (70°F)
Dewpoint: 17.0°C (63°F) [RH = 78%]
Pressure (altimeter): 30.06 inches Hg (1018.0 mb)
Winds: from the NNE (30 degrees) at 5 MPH (4 knots; 2.1 m/s)
Visibility: 6 or more miles (10+ km)
Ceiling: ceiling and visibility are OK
Clouds: unknown
Weather: no significant weather observed at this time

METAR text: LFST 180630Z AUTO VRB03KT CAVOK 21/16 Q1018 NOSIG
Conditions at: LFST (STRASBOURG/ENTZH, FR) observed 0630 UTC 18 July 2018
Temperature: 21.0°C (70°F)
Dewpoint: 16.0°C (61°F) [RH = 73%]
Pressure (altimeter): 30.06 inches Hg (1018.0 mb)
Winds: variable direction winds at 3 MPH (3 knots; 1.6 m/s)
Visibility: 6 or more miles (10+ km)
Ceiling: ceiling and visibility are OK
Clouds: unknown
Weather: no significant weather observed at this time

METAR text: LFST 180600Z AUTO 00000KT CAVOK 20/16 Q1018 NOSIG
Conditions at: LFST (STRASBOURG/ENTZH, FR) observed 0600 UTC 18 July 2018
Temperature: 20.0°C (68°F)
Dewpoint: 16.0°C (61°F) [RH = 78%]
Pressure (altimeter): 30.06 inches Hg (1018.0 mb)
Winds: calm
Visibility: 6 or more miles (10+ km)
Ceiling: ceiling and visibility are OK
Clouds: unknown
Weather: no significant weather observed at this time

METAR text: LFST 180530Z AUTO VRB02KT CAVOK 18/17 Q1018 NOSIG
Conditions at: LFST (STRASBOURG/ENTZH, FR) observed 0530 UTC 18 July 2018
Temperature: 18.0°C (64°F)
Dewpoint: 17.0°C (63°F) [RH = 94%]
Pressure (altimeter): 30.06 inches Hg (1018.0 mb)
Winds: variable direction winds at 2 MPH (2 knots; 1.0 m/s)
Visibility: 6 or more miles (10+ km)
Ceiling: ceiling and visibility are OK
Clouds: unknown
Weather: no significant weather observed at this time

METAR text: LFST 180500Z AUTO VRB02KT CAVOK 17/16 Q1018 NOSIG
Conditions at: LFST (STRASBOURG/ENTZH, FR) observed 0500 UTC 18 July 2018
Temperature: 17.0°C (63°F)
Dewpoint: 16.0°C (61°F) [RH = 94%]
Pressure (altimeter): 30.06 inches Hg (1018.0 mb)
Winds: variable direction winds at 2 MPH (2 knots; 1.0 m/s)
Visibility: 6 or more miles (10+ km)
Ceiling: ceiling and visibility are OK
Clouds: unknown
Weather: no significant weather observed at this time

METAR text: LFST 180430Z AUTO VRB02KT CAVOK 16/15 Q1018 NOSIG
Conditions at: LFST (STRASBOURG/ENTZH, FR) observed 0430 UTC 18 July 2018
Temperature: 16.0°C (61°F)
Dewpoint: 15.0°C (59°F) [RH = 94%]
Pressure (altimeter): 30.06 inches Hg (1018.0 mb)
Winds: variable direction winds at 2 MPH (2 knots; 1.0 m/s)
Visibility: 6 or more miles (10+ km)
Ceiling: ceiling and visibility are OK
Clouds: unknown
Weather: no significant weather observed at this time

METAR text: LFST 180400Z AUTO 00000KT 9000 3500 NSC 16/15 Q1017 TEMPO 4000 BR
Conditions at: LFST (STRASBOURG/ENTZH, FR) observed 0400 UTC 18 July 2018
Temperature: 16.0°C (61°F)
Dewpoint: 15.0°C (59°F) [RH = 94%]
Pressure (altimeter): 30.03 inches Hg (1017.0 mb)
Winds: calm
Visibility: 6 miles (9 km)
Ceiling: at least 12,000 feet AGL
Clouds: sky clear below 12,000 feet AGL
Weather: no significant weather observed at this time

METAR text: LFST 180330Z AUTO 20003KT CAVOK 16/16 Q1017 TEMPO 4000 BR
Conditions at: LFST (STRASBOURG/ENTZH, FR) observed 0330 UTC 18 July 2018
Temperature: 16.0°C (61°F)
Dewpoint: 16.0°C (61°F) [RH = 100%]
Pressure (altimeter): 30.03 inches Hg (1017.0 mb)
Winds: from the SSW (200 degrees) at 3 MPH (3 knots; 1.6 m/s)
Visibility: 6 or more miles (10+ km)
Ceiling: ceiling and visibility are OK
Clouds: unknown
Weather: no significant weather observed at this time

METAR text: LFST 180300Z AUTO 15003KT CAVOK 17/15 Q1017 TEMPO 4000 BR
Conditions at: LFST (STRASBOURG/ENTZH, FR) observed 0300 UTC 18 July 2018
Temperature: 17.0°C (63°F)
Dewpoint: 15.0°C (59°F) [RH = 88%]
Pressure (altimeter): 30.03 inches Hg (1017.0 mb)
Winds: from the SSE (150 degrees) at 3 MPH (3 knots; 1.6 m/s)
Visibility: 6 or more miles (10+ km)
Ceiling: ceiling and visibility are OK
Clouds: unknown
Weather: no significant weather observed at this time

METAR text: LFST 180230Z AUTO 21002KT CAVOK 17/16 Q1017 TEMPO 4000 BR
Conditions at: LFST (STRASBOURG/ENTZH, FR) observed 0230 UTC 18 July 2018
Temperature: 17.0°C (63°F)
Dewpoint: 16.0°C (61°F) [RH = 94%]
Pressure (altimeter): 30.03 inches Hg (1017.0 mb)
Winds: from the SSW (210 degrees) at 2 MPH (2 knots; 1.0 m/s)
Visibility: 6 or more miles (10+ km)
Ceiling: ceiling and visibility are OK
Clouds: unknown
Weather: no significant weather observed at this time

METAR text: LFST 180200Z AUTO 23004KT CAVOK 17/16 Q1017 TEMPO 4000 BR
Conditions at: LFST (STRASBOURG/ENTZH, FR) observed 0200 UTC 18 July 2018
Temperature: 17.0°C (63°F)
Dewpoint: 16.0°C (61°F) [RH = 94%]
Pressure (altimeter): 30.03 inches Hg (1017.0 mb)
Winds: from the SW (230 degrees) at 5 MPH (4 knots; 2.1 m/s)
Visibility: 6 or more miles (10+ km)
Ceiling: ceiling and visibility are OK
Clouds: unknown
Weather: no significant weather observed at this time

METAR text: LFST 180130Z AUTO 24003KT CAVOK 17/16 Q1017 TEMPO 4000 BR
Conditions at: LFST (STRASBOURG/ENTZH, FR) observed 0130 UTC 18 July 2018
Temperature: 17.0°C (63°F)
Dewpoint: 16.0°C (61°F) [RH = 94%]
Pressure (altimeter): 30.03 inches Hg (1017.0 mb)
Winds: from the WSW (240 degrees) at 3 MPH (3 knots; 1.6 m/s)
Visibility: 6 or more miles (10+ km)
Ceiling: ceiling and visibility are OK
Clouds: unknown
Weather: no significant weather observed at this time

METAR text: LFST 180100Z AUTO 23003KT CAVOK 17/16 Q1017 TEMPO 4000 BR
Conditions at: LFST (STRASBOURG/ENTZH, FR) observed 0100 UTC 18 July 2018
Temperature: 17.0°C (63°F)
Dewpoint: 16.0°C (61°F) [RH = 94%]
Pressure (altimeter): 30.03 inches Hg (1017.0 mb)
Winds: from the SW (230 degrees) at 3 MPH (3 knots; 1.6 m/s)
Visibility: 6 or more miles (10+ km)
Ceiling: ceiling and visibility are OK
Clouds: unknown
Weather: no significant weather observed at this time

METAR text: LFST 180030Z AUTO 24005KT CAVOK 18/16 Q1017 TEMPO 4000 BR
Conditions at: LFST (STRASBOURG/ENTZH, FR) observed 0030 UTC 18 July 2018
Temperature: 18.0°C (64°F)
Dewpoint: 16.0°C (61°F) [RH = 88%]
Pressure (altimeter): 30.03 inches Hg (1017.0 mb)
Winds: from the WSW (240 degrees) at 6 MPH (5 knots; 2.6 m/s)
Visibility: 6 or more miles (10+ km)
Ceiling: ceiling and visibility are OK
Clouds: unknown
Weather: no significant weather observed at this time

METAR text: LFST 180000Z AUTO 21004KT CAVOK 18/17 Q1017 TEMPO 4000 BR
Conditions at: LFST (STRASBOURG/ENTZH, FR) observed 0000 UTC 18 July 2018
Temperature: 18.0°C (64°F)
Dewpoint: 17.0°C (63°F) [RH = 94%]
Pressure (altimeter): 30.03 inches Hg (1017.0 mb)
Winds: from the SSW (210 degrees) at 5 MPH (4 knots; 2.1 m/s)
Visibility: 6 or more miles (10+ km)
Ceiling: ceiling and visibility are OK
Clouds: unknown
Weather: no significant weather observed at this time

METAR text: LFST 172330Z AUTO 18003KT CAVOK 18/17 Q1017 TEMPO 4000 BR
Conditions at: LFST (STRASBOURG/ENTZH, FR) observed 2330 UTC 17 July 2018
Temperature: 18.0°C (64°F)
Dewpoint: 17.0°C (63°F) [RH = 94%]
Pressure (altimeter): 30.03 inches Hg (1017.0 mb)
Winds: from the S (180 degrees) at 3 MPH (3 knots; 1.6 m/s)
Visibility: 6 or more miles (10+ km)
Ceiling: ceiling and visibility are OK
Clouds: unknown
Weather: no significant weather observed at this time

METAR text: LFST 172300Z AUTO 29003KT CAVOK 18/17 Q1017 TEMPO 4000 BR
Conditions at: LFST (STRASBOURG/ENTZH, FR) observed 2300 UTC 17 July 2018
Temperature: 18.0°C (64°F)
Dewpoint: 17.0°C (63°F) [RH = 94%]
Pressure (altimeter): 30.03 inches Hg (1017.0 mb)
Winds: from the WNW (290 degrees) at 3 MPH (3 knots; 1.6 m/s)
Visibility: 6 or more miles (10+ km)
Ceiling: ceiling and visibility are OK
Clouds: unknown
Weather: no significant weather observed at this time

METAR text: LFST 172230Z AUTO VRB03KT 9999 ///TCU 20/17 Q1017 TEMPO 4000 BR BECMG NSC
Conditions at: LFST (STRASBOURG/ENTZH, FR) observed 2230 UTC 17 July 2018
Temperature: 20.0°C (68°F)
Dewpoint: 17.0°C (63°F) [RH = 83%]
Pressure (altimeter): 30.03 inches Hg (1017.0 mb)
Winds: variable direction winds at 3 MPH (3 knots; 1.6 m/s)
Visibility: 6 or more miles (10+ km)
Ceiling: unknown
Clouds: missing
Weather: no significant weather observed at this time

METAR text: LFST 172200Z AUTO 13004KT 9999 ///CB 20/18 Q1017 BECMG NSC
Conditions at: LFST (STRASBOURG/ENTZH, FR) observed 2200 UTC 17 July 2018
Temperature: 20.0°C (68°F)
Dewpoint: 18.0°C (64°F) [RH = 88%]
Pressure (altimeter): 30.03 inches Hg (1017.0 mb)
Winds: from the SE (130 degrees) at 5 MPH (4 knots; 2.1 m/s)
Visibility: 6 or more miles (10+ km)
Ceiling: unknown
Clouds: missing
Weather: no significant weather observed at this time

METAR text: LFST 172130Z AUTO VRB04KT 9999 ///CB 19/18 Q1017 BECMG NSC
Conditions at: LFST (STRASBOURG/ENTZH, FR) observed 2130 UTC 17 July 2018
Temperature: 19.0°C (66°F)
Dewpoint: 18.0°C (64°F) [RH = 94%]
Pressure (altimeter): 30.03 inches Hg (1017.0 mb)
Winds: variable direction winds at 5 MPH (4 knots; 2.1 m/s)
Visibility: 6 or more miles (10+ km)
Ceiling: unknown
Clouds: missing
Weather: no significant weather observed at this time

METAR text: LFST 172100Z AUTO 21006KT 9999 TS ///CB 19/17 Q1017 BECMG NSW NSC
Conditions at: LFST (STRASBOURG/ENTZH, FR) observed 2100 UTC 17 July 2018
Temperature: 19.0°C (66°F)
Dewpoint: 17.0°C (63°F) [RH = 88%]
Pressure (altimeter): 30.03 inches Hg (1017.0 mb)
Winds: from the SSW (210 degrees) at 7 MPH (6 knots; 3.1 m/s)
Visibility: 6 or more miles (10+ km)
Ceiling: unknown
Clouds: missing
Weather: TS  (thunderstorm)

METAR text: LFST 172030Z AUTO 33006KT 9999 TS ///CB 19/18 Q1017 BECMG NSW NSC
Conditions at: LFST (STRASBOURG/ENTZH, FR) observed 2030 UTC 17 July 2018
Temperature: 19.0°C (66°F)
Dewpoint: 18.0°C (64°F) [RH = 94%]
Pressure (altimeter): 30.03 inches Hg (1017.0 mb)
Winds: from the NNW (330 degrees) at 7 MPH (6 knots; 3.1 m/s)
Visibility: 6 or more miles (10+ km)
Ceiling: unknown
Clouds: missing
Weather: TS  (thunderstorm)

METAR text: LFST 172000Z AUTO VRB02KT 9999 TS ///CB 20/17 Q1016 BECMG NSW NSC
Conditions at: LFST (STRASBOURG/ENTZH, FR) observed 2000 UTC 17 July 2018
Temperature: 20.0°C (68°F)
Dewpoint: 17.0°C (63°F) [RH = 83%]
Pressure (altimeter): 30.00 inches Hg (1016.0 mb)
Winds: variable direction winds at 2 MPH (2 knots; 1.0 m/s)
Visibility: 6 or more miles (10+ km)
Ceiling: unknown
Clouds: missing
Weather: TS  (thunderstorm)

METAR text: LFST 171930Z AUTO 19008KT 120V250 9999 -TSRA FEW033/// BKN074/// BKN090/// ///CB 20/17 Q1016 BECMG NSW NSC
Conditions at: LFST (STRASBOURG/ENTZH, FR) observed 1930 UTC 17 July 2018
Temperature: 20.0°C (68°F)
Dewpoint: 17.0°C (63°F) [RH = 83%]
Pressure (altimeter): 30.00 inches Hg (1016.0 mb)
Winds: from the S (190 degrees) at 9 MPH (8 knots; 4.2 m/s)
Visibility: 6 or more miles (10+ km)
Ceiling: 7400 feet AGL
Clouds: few clouds at 3300 feet AGL
broken clouds at 7400 feet AGL
broken clouds at 9000 feet AGL
Weather: -TSRA  (light rain associated with thunderstorm(s))

METAR text: LFST 171900Z AUTO 13004KT 100V180 9999 VCTS ///CB 22/16 Q1016 BECMG NSW NSC
Conditions at: LFST (STRASBOURG/ENTZH, FR) observed 1900 UTC 17 July 2018
Temperature: 22.0°C (72°F)
Dewpoint: 16.0°C (61°F) [RH = 69%]
Pressure (altimeter): 30.00 inches Hg (1016.0 mb)
Winds: from the SE (130 degrees) at 5 MPH (4 knots; 2.1 m/s)
Visibility: 6 or more miles (10+ km)
Ceiling: unknown
Clouds: missing
Weather: VCTS  (thunderstorm in vicinity)

METAR text: LFST 171830Z AUTO 11004KT 080V150 9999 VCTS ///CB 23/16 Q1015 BECMG NSW NSC
Conditions at: LFST (STRASBOURG/ENTZH, FR) observed 1830 UTC 17 July 2018
Temperature: 23.0°C (73°F)
Dewpoint: 16.0°C (61°F) [RH = 65%]
Pressure (altimeter): 29.97 inches Hg (1015.0 mb)
Winds: from the ESE (110 degrees) at 5 MPH (4 knots; 2.1 m/s)
Visibility: 6 or more miles (10+ km)
Ceiling: unknown
Clouds: missing
Weather: VCTS  (thunderstorm in vicinity)

METAR text: LFST 171800Z AUTO 15003KT 120V180 CAVOK 26/17 Q1015 TEMPO FEW060CB
Conditions at: LFST (STRASBOURG/ENTZH, FR) observed 1800 UTC 17 July 2018
Temperature: 26.0°C (79°F)
Dewpoint: 17.0°C (63°F) [RH = 58%]
Pressure (altimeter): 29.97 inches Hg (1015.0 mb)
Winds: from the SSE (150 degrees) at 3 MPH (3 knots; 1.6 m/s)
Visibility: 6 or more miles (10+ km)
Ceiling: ceiling and visibility are OK
Clouds: unknown
Weather: no significant weather observed at this time

METAR text: LFST 171730Z AUTO 19004KT 160V230 CAVOK 27/13 Q1015 TEMPO FEW060CB
Conditions at: LFST (STRASBOURG/ENTZH, FR) observed 1730 UTC 17 July 2018
Temperature: 27.0°C (81°F)
Dewpoint: 13.0°C (55°F) [RH = 42%]
Pressure (altimeter): 29.97 inches Hg (1015.0 mb)
Winds: from the S (190 degrees) at 5 MPH (4 knots; 2.1 m/s)
Visibility: 6 or more miles (10+ km)
Ceiling: ceiling and visibility are OK
Clouds: unknown
Weather: no significant weather observed at this time

METAR text: LFST 171700Z AUTO 21003KT 170V250 9999 ///CB 27/15 Q1015 TEMPO 3000 TSRA
Conditions at: LFST (STRASBOURG/ENTZH, FR) observed 1700 UTC 17 July 2018
Temperature: 27.0°C (81°F)
Dewpoint: 15.0°C (59°F) [RH = 48%]
Pressure (altimeter): 29.97 inches Hg (1015.0 mb)
Winds: from the SSW (210 degrees) at 3 MPH (3 knots; 1.6 m/s)
Visibility: 6 or more miles (10+ km)
Ceiling: unknown
Clouds: missing
Weather: no significant weather observed at this time

METAR text: LFST 171630Z AUTO 18007KT 9999 ///CB 26/15 Q1015 TEMPO 3000 TSRA
Conditions at: LFST (STRASBOURG/ENTZH, FR) observed 1630 UTC 17 July 2018
Temperature: 26.0°C (79°F)
Dewpoint: 15.0°C (59°F) [RH = 51%]
Pressure (altimeter): 29.97 inches Hg (1015.0 mb)
Winds: from the S (180 degrees) at 8 MPH (7 knots; 3.6 m/s)
Visibility: 6 or more miles (10+ km)
Ceiling: unknown
Clouds: missing
Weather: no significant weather observed at this time

METAR text: LFST 171600Z AUTO 20006KT 9999 TS ///CB 26/16 Q1015 TEMPO 3000 TSRA
Conditions at: LFST (STRASBOURG/ENTZH, FR) observed 1600 UTC 17 July 2018
Temperature: 26.0°C (79°F)
Dewpoint: 16.0°C (61°F) [RH = 54%]
Pressure (altimeter): 29.97 inches Hg (1015.0 mb)
Winds: from the SSW (200 degrees) at 7 MPH (6 knots; 3.1 m/s)
Visibility: 6 or more miles (10+ km)
Ceiling: unknown
Clouds: missing
Weather: TS  (thunderstorm)

METAR text: LFST 171530Z AUTO 16009KT 100V200 9999 -TSRA FEW015/// SCT035/// BKN070/// ///CB 25/15 Q1015 TEMPO 3000 TSRA
Conditions at: LFST (STRASBOURG/ENTZH, FR) observed 1530 UTC 17 July 2018
Temperature: 25.0°C (77°F)
Dewpoint: 15.0°C (59°F) [RH = 54%]
Pressure (altimeter): 29.97 inches Hg (1015.0 mb)
Winds: from the SSE (160 degrees) at 10 MPH (9 knots; 4.7 m/s)
Visibility: 6 or more miles (10+ km)
Ceiling: 7000 feet AGL
Clouds: few clouds at 1500 feet AGL
scattered clouds at 3500 feet AGL
broken clouds at 7000 feet AGL
Weather: -TSRA  (light rain associated with thunderstorm(s))

METAR text: LFST 171500Z AUTO 20008KT 160V220 9999 3900 TS FEW058/// BKN082/// BKN100/// ///CB 28/16 Q1015 TEMPO 3000 TSRA
Conditions at: LFST (STRASBOURG/ENTZH, FR) observed 1500 UTC 17 July 2018
Temperature: 28.0°C (82°F)
Dewpoint: 16.0°C (61°F) [RH = 48%]
Pressure (altimeter): 29.97 inches Hg (1015.0 mb)
Winds: from the SSW (200 degrees) at 9 MPH (8 knots; 4.2 m/s)
Visibility: 6 or more miles (10+ km)
Ceiling: 8200 feet AGL
Clouds: few clouds at 5800 feet AGL
broken clouds at 8200 feet AGL
broken clouds at 10000 feet AGL
Weather: TS  (thunderstorm)

METAR text: LFST 171430Z AUTO 18006KT 120V240 9999 ///TCU 29/14 Q1015 TEMPO 3000 TSRA FEW060CB
Conditions at: LFST (STRASBOURG/ENTZH, FR) observed 1430 UTC 17 July 2018
Temperature: 29.0°C (84°F)
Dewpoint: 14.0°C (57°F) [RH = 40%]
Pressure (altimeter): 29.97 inches Hg (1015.0 mb)
Winds: from the S (180 degrees) at 7 MPH (6 knots; 3.1 m/s)
Visibility: 6 or more miles (10+ km)
Ceiling: unknown
Clouds: missing
Weather: no significant weather observed at this time

METAR text: LFST 171400Z AUTO 19006KT 120V230 CAVOK 29/15 Q1015 TEMPO 3000 TSRA FEW060CB
Conditions at: LFST (STRASBOURG/ENTZH, FR) observed 1400 UTC 17 July 2018
Temperature: 29.0°C (84°F)
Dewpoint: 15.0°C (59°F) [RH = 43%]
Pressure (altimeter): 29.97 inches Hg (1015.0 mb)
Winds: from the S (190 degrees) at 7 MPH (6 knots; 3.1 m/s)
Visibility: 6 or more miles (10+ km)
Ceiling: ceiling and visibility are OK
Clouds: unknown
Weather: no significant weather observed at this time

METAR text: LFST 171330Z AUTO 16007KT 120V190 CAVOK 28/15 Q1015 TEMPO 3000 TSRA FEW060CB
Conditions at: LFST (STRASBOURG/ENTZH, FR) observed 1330 UTC 17 July 2018
Temperature: 28.0°C (82°F)
Dewpoint: 15.0°C (59°F) [RH = 45%]
Pressure (altimeter): 29.97 inches Hg (1015.0 mb)
Winds: from the SSE (160 degrees) at 8 MPH (7 knots; 3.6 m/s)
Visibility: 6 or more miles (10+ km)
Ceiling: ceiling and visibility are OK
Clouds: unknown
Weather: no significant weather observed at this time

METAR text: LFST 171300Z AUTO 19008KT 9999 TS FEW038/// BKN082/// BKN100/// ///CB 28/15 Q1015 TEMPO 3000 TSRA
Conditions at: LFST (STRASBOURG/ENTZH, FR) observed 1300 UTC 17 July 2018
Temperature: 28.0°C (82°F)
Dewpoint: 15.0°C (59°F) [RH = 45%]
Pressure (altimeter): 29.97 inches Hg (1015.0 mb)
Winds: from the S (190 degrees) at 9 MPH (8 knots; 4.2 m/s)
Visibility: 6 or more miles (10+ km)
Ceiling: 8200 feet AGL
Clouds: few clouds at 3800 feet AGL
broken clouds at 8200 feet AGL
broken clouds at 10000 feet AGL
Weather: TS  (thunderstorm)

METAR text: LFST 171230Z AUTO 24007KT 210V350 9999 ///TCU 30/12 Q1015 TEMPO 3000 TSRA FEW060CB
Conditions at: LFST (STRASBOURG/ENTZH, FR) observed 1230 UTC 17 July 2018
Temperature: 30.0°C (86°F)
Dewpoint: 12.0°C (54°F) [RH = 33%]
Pressure (altimeter): 29.97 inches Hg (1015.0 mb)
Winds: from the WSW (240 degrees) at 8 MPH (7 knots; 3.6 m/s)
Visibility: 6 or more miles (10+ km)
Ceiling: unknown
Clouds: missing
Weather: no significant weather observed at this time

METAR text: LFST 171200Z AUTO 33009KT 290V010 9999 ///CB 30/12 Q1015 TEMPO 23012G22KT 3000 TSRA
Conditions at: LFST (STRASBOURG/ENTZH, FR) observed 1200 UTC 17 July 2018
Temperature: 30.0°C (86°F)
Dewpoint: 12.0°C (54°F) [RH = 33%]
Pressure (altimeter): 29.97 inches Hg (1015.0 mb)
Winds: from the NNW (330 degrees) at 10 MPH (9 knots; 4.7 m/s)
Visibility: 6 or more miles (10+ km)
Ceiling: unknown
Clouds: missing
Weather: no significant weather observed at this time

METAR text: LFST 171130Z AUTO 36007KT 310V040 9999 ///CB 30/14 Q1015 TEMPO 23012G22KT 3000 TSRA
Conditions at: LFST (STRASBOURG/ENTZH, FR) observed 1130 UTC 17 July 2018
Temperature: 30.0°C (86°F)
Dewpoint: 14.0°C (57°F) [RH = 38%]
Pressure (altimeter): 29.97 inches Hg (1015.0 mb)
Winds: from the N (360 degrees) at 8 MPH (7 knots; 3.6 m/s)
Visibility: 6 or more miles (10+ km)
Ceiling: unknown
Clouds: missing
Weather: no significant weather observed at this time

METAR text: LFST 171100Z AUTO VRB06KT CAVOK 29/13 Q1015 NOSIG
Conditions at: LFST (STRASBOURG/ENTZH, FR) observed 1100 UTC 17 July 2018
Temperature: 29.0°C (84°F)
Dewpoint: 13.0°C (55°F) [RH = 37%]
Pressure (altimeter): 29.97 inches Hg (1015.0 mb)
Winds: variable direction winds at 7 MPH (6 knots; 3.1 m/s)
Visibility: 6 or more miles (10+ km)
Ceiling: ceiling and visibility are OK
Clouds: unknown
Weather: no significant weather observed at this time

METAR text: LFST 171030Z AUTO 18003KT 110V270 CAVOK 28/16 Q1015 NOSIG
Conditions at: LFST (STRASBOURG/ENTZH, FR) observed 1030 UTC 17 July 2018
Temperature: 28.0°C (82°F)
Dewpoint: 16.0°C (61°F) [RH = 48%]
Pressure (altimeter): 29.97 inches Hg (1015.0 mb)
Winds: from the S (180 degrees) at 3 MPH (3 knots; 1.6 m/s)
Visibility: 6 or more miles (10+ km)
Ceiling: ceiling and visibility are OK
Clouds: unknown
Weather: no significant weather observed at this time

METAR text: LFST 171000Z AUTO 23005KT 200V260 CAVOK 27/17 Q1015 NOSIG
Conditions at: LFST (STRASBOURG/ENTZH, FR) observed 1000 UTC 17 July 2018
Temperature: 27.0°C (81°F)
Dewpoint: 17.0°C (63°F) [RH = 54%]
Pressure (altimeter): 29.97 inches Hg (1015.0 mb)
Winds: from the SW (230 degrees) at 6 MPH (5 knots; 2.6 m/s)
Visibility: 6 or more miles (10+ km)
Ceiling: ceiling and visibility are OK
Clouds: unknown
Weather: no significant weather observed at this time

METAR text: LFST 170930Z AUTO 17004KT 110V240 CAVOK 27/16 Q1015 NOSIG
Conditions at: LFST (STRASBOURG/ENTZH, FR) observed 0930 UTC 17 July 2018
Temperature: 27.0°C (81°F)
Dewpoint: 16.0°C (61°F) [RH = 51%]
Pressure (altimeter): 29.97 inches Hg (1015.0 mb)
Winds: from the S (170 degrees) at 5 MPH (4 knots; 2.1 m/s)
Visibility: 6 or more miles (10+ km)
Ceiling: ceiling and visibility are OK
Clouds: unknown
Weather: no significant weather observed at this time

METAR text: LFST 170900Z AUTO 16004KT 100V220 CAVOK 26/17 Q1015 NOSIG
Conditions at: LFST (STRASBOURG/ENTZH, FR) observed 0900 UTC 17 July 2018
Temperature: 26.0°C (79°F)
Dewpoint: 17.0°C (63°F) [RH = 58%]
Pressure (altimeter): 29.97 inches Hg (1015.0 mb)
Winds: from the SSE (160 degrees) at 5 MPH (4 knots; 2.1 m/s)
Visibility: 6 or more miles (10+ km)
Ceiling: ceiling and visibility are OK
Clouds: unknown
Weather: no significant weather observed at this time

METAR text: LFST 170830Z AUTO 21005KT 170V250 CAVOK 25/16 Q1015 NOSIG
Conditions at: LFST (STRASBOURG/ENTZH, FR) observed 0830 UTC 17 July 2018
Temperature: 25.0°C (77°F)
Dewpoint: 16.0°C (61°F) [RH = 57%]
Pressure (altimeter): 29.97 inches Hg (1015.0 mb)
Winds: from the SSW (210 degrees) at 6 MPH (5 knots; 2.6 m/s)
Visibility: 6 or more miles (10+ km)
Ceiling: ceiling and visibility are OK
Clouds: unknown
Weather: no significant weather observed at this time